Time;durP1;ratioP1;P1;durP2;ratioP2;P2;SDS_P1;SDS_P2;PMS_P1;PMS_P2;Temp;Humidity;BMP_temperature;BMP_pressure;BME280_temperature;BME280_humidity;BME280_pressure;Samples;Min_cycle;Max_cycle;Signal;HPM_P1;HPM_P2
2022/12/01 00:01:00;;;;;;;125.93;60.08;;;6.60;93.70;;;;;;5087434;28;20819;-90
2022/12/01 00:03:28;;;;;;;129.75;59.83;;;6.50;93.70;;;;;;5088803;28;20414;-89
2022/12/01 00:06:20;;;;;;;139.27;61.63;;;6.50;93.70;;;;;;5070990;28;20402;-90
2022/12/01 00:11:33;;;;;;;130.68;60.47;;;6.50;93.60;;;;;;5105689;28;20403;-90
2022/12/01 00:13:59;;;;;;;147.05;62.60;;;6.50;93.70;;;;;;5087378;28;20410;-91
2022/12/01 00:16:24;;;;;;;143.82;61.08;;;6.50;93.80;;;;;;5088531;28;20726;-90
2022/12/01 00:18:51;;;;;;;154.27;64.30;;;6.50;93.70;;;;;;5070485;28;20421;-89
2022/12/01 00:21:19;;;;;;;140.63;61.70;;;6.50;93.70;;;;;;5087981;28;20402;-89
2022/12/01 00:23:51;;;;;;;142.60;62.30;;;6.60;93.70;;;;;;5087922;28;20502;-91
2022/12/01 00:26:18;;;;;;;137.85;60.60;;;6.50;93.80;;;;;;5087295;28;20446;-89
2022/12/01 00:28:48;;;;;;;144.90;61.47;;;6.50;93.80;;;;;;5088701;28;20401;-90
2022/12/01 00:31:14;;;;;;;129.43;59.00;;;6.50;93.80;;;;;;5069863;28;20445;-89
2022/12/01 00:33:39;;;;;;;115.53;57.40;;;6.50;93.80;;;;;;5104844;28;20442;-91
2022/12/01 00:36:05;;;;;;;140.03;61.23;;;6.50;93.70;;;;;;5070082;28;20410;-89
2022/12/01 00:38:31;;;;;;;129.00;59.73;;;6.50;93.70;;;;;;5087271;28;20788;-89
2022/12/01 00:40:57;;;;;;;141.75;62.10;;;6.50;93.70;;;;;;5087799;28;20410;-88
2022/12/01 00:43:23;;;;;;;137.70;60.30;;;6.30;93.60;;;;;;5070073;28;20455;-90
2022/12/01 00:45:50;;;;;;;133.25;59.03;;;6.50;93.70;;;;;;5087919;28;20402;-91
2022/12/01 00:48:15;;;;;;;142.35;61.22;;;6.40;93.60;;;;;;5086162;28;20410;-89
2022/12/01 00:50:41;;;;;;;124.80;59.30;;;6.40;93.70;;;;;;5071211;28;20410;-90
2022/12/01 00:53:07;;;;;;;128.80;59.58;;;6.40;93.60;;;;;;5069532;28;20414;-89
2022/12/01 00:55:33;;;;;;;132.18;58.75;;;6.40;93.60;;;;;;5070836;28;20430;-90
2022/12/01 00:57:58;;;;;;;129.10;59.60;;;6.40;93.80;;;;;;5086743;28;20479;-90
2022/12/01 01:00:24;;;;;;;135.18;58.85;;;6.40;94.00;;;;;;5087190;28;20428;-89
2022/12/01 01:02:50;;;;;;;157.27;65.33;;;6.40;94.00;;;;;;5087556;28;20783;-91
2022/12/01 01:05:15;;;;;;;134.40;60.27;;;6.40;93.80;;;;;;5103509;28;20401;-90
2022/12/01 01:07:41;;;;;;;139.50;60.40;;;6.40;93.80;;;;;;5087732;28;20425;-91
2022/12/01 01:10:06;;;;;;;153.10;62.10;;;6.40;93.90;;;;;;5069020;28;20905;-91
2022/12/01 01:12:32;;;;;;;146.68;62.25;;;6.40;94.00;;;;;;5087142;28;20412;-89
2022/12/01 01:14:58;;;;;;;139.93;59.03;;;6.40;93.90;;;;;;5086533;28;20800;-90
2022/12/01 01:17:23;;;;;;;137.23;60.30;;;6.30;93.80;;;;;;5086520;28;20499;-89
2022/12/01 01:19:51;;;;;;;128.27;59.17;;;6.30;93.90;;;;;;5086239;28;20429;-90
2022/12/01 01:22:17;;;;;;;154.18;62.90;;;6.20;93.90;;;;;;5086451;28;20393;-89
2022/12/01 01:24:42;;;;;;;143.83;60.90;;;6.20;94.10;;;;;;5087178;28;20457;-88
2022/12/01 01:27:08;;;;;;;135.30;60.17;;;6.30;94.10;;;;;;5086296;28;20899;-91
2022/12/01 01:29:34;;;;;;;129.15;58.75;;;6.30;94.10;;;;;;5070098;28;20402;-91
2022/12/01 01:32:00;;;;;;;128.52;58.15;;;6.30;94.10;;;;;;5085484;28;20410;-90
2022/12/01 01:34:25;;;;;;;134.23;58.75;;;6.20;94.00;;;;;;5069973;28;20900;-90
2022/12/01 01:36:51;;;;;;;130.70;55.13;;;6.20;93.90;;;;;;5085763;28;20414;-89
2022/12/01 01:39:17;;;;;;;146.63;60.53;;;6.20;93.90;;;;;;5086814;28;20394;-89
2022/12/01 01:41:42;;;;;;;154.63;60.97;;;6.20;94.10;;;;;;5103400;28;20965;-90
2022/12/01 01:44:48;;;;;;;150.43;60.43;;;6.20;94.10;;;;;;5085342;28;20446;-91
2022/12/01 01:47:16;;;;;;;147.80;62.78;;;6.10;94.20;;;;;;5087098;28;20409;-91
2022/12/01 01:49:42;;;;;;;151.67;60.17;;;6.10;94.40;;;;;;5084964;28;20398;-90
2022/12/01 01:52:08;;;;;;;161.87;63.03;;;6.00;94.40;;;;;;5086240;28;20406;-90
2022/12/01 01:54:38;;;;;;;147.77;60.28;;;6.00;94.50;;;;;;5069254;28;20409;-90
2022/12/01 01:57:06;;;;;;;153.18;60.75;;;6.00;94.60;;;;;;5086100;28;20989;-90
2022/12/01 01:59:39;;;;;;;142.60;60.35;;;6.10;94.60;;;;;;5087017;28;21035;-90
2022/12/01 02:02:10;;;;;;;170.02;64.82;;;6.10;94.60;;;;;;5085287;28;20405;-92
2022/12/01 02:04:45;;;;;;;192.25;67.78;;;6.10;94.60;;;;;;5086804;28;20773;-91
2022/12/01 02:07:13;;;;;;;184.27;66.82;;;6.00;94.70;;;;;;5083559;28;20904;-91
2022/12/01 02:09:39;;;;;;;172.55;63.08;;;6.10;94.80;;;;;;5086464;28;20764;-89
2022/12/01 02:12:38;;;;;;;171.02;65.15;;;6.10;94.70;;;;;;5069109;28;20410;-90
2022/12/01 02:15:19;;;;;;;173.30;67.22;;;6.10;94.70;;;;;;5067997;28;20421;-89
2022/12/01 02:17:56;;;;;;;158.07;65.22;;;6.10;94.70;;;;;;5069685;28;20426;-90
2022/12/01 02:20:45;;;;;;;212.10;67.30;;;6.10;94.70;;;;;;5085434;28;20489;-91
2022/12/01 02:23:20;;;;;;;176.52;65.90;;;6.10;94.70;;;;;;5067989;28;20417;-90
2022/12/01 02:25:45;;;;;;;187.98;66.97;;;6.10;94.60;;;;;;5070087;28;20410;-88
2022/12/01 02:28:41;;;;;;;167.10;63.23;;;6.20;94.80;;;;;;5067979;28;20459;-89
2022/12/01 02:31:09;;;;;;;169.75;65.93;;;6.20;94.70;;;;;;5060469;28;20425;-89
2022/12/01 02:33:57;;;;;;;173.23;66.07;;;6.20;94.60;;;;;;5085508;28;20514;-90
2022/12/01 02:36:31;;;;;;;179.45;66.53;;;6.20;94.50;;;;;;5084808;28;20900;-89
2022/12/01 02:39:16;;;;;;;193.15;68.65;;;6.20;94.50;;;;;;5086134;28;20405;-89
2022/12/01 02:41:49;;;;;;;171.70;65.28;;;6.20;94.50;;;;;;5068857;28;20398;-89
2022/12/01 02:44:22;;;;;;;172.33;64.90;;;6.20;94.30;;;;;;5085594;28;20444;-90
2022/12/01 02:46:59;;;;;;;171.20;64.75;;;6.20;94.20;;;;;;5086306;28;20414;-90
2022/12/01 02:49:31;;;;;;;195.43;67.35;;;6.20;94.20;;;;;;5084244;28;20449;-89
2022/12/01 02:51:57;;;;;;;185.02;66.70;;;6.20;94.20;;;;;;5070039;28;20773;-89
2022/12/01 02:54:27;;;;;;;188.10;66.07;;;6.20;94.40;;;;;;5084692;28;20773;-88
2022/12/01 02:56:56;;;;;;;168.57;64.60;;;6.20;94.30;;;;;;5085572;28;20410;-91
2022/12/01 02:59:21;;;;;;;225.15;70.03;;;6.20;94.20;;;;;;5068324;28;20543;-90
2022/12/01 03:02:16;;;;;;;184.83;67.43;;;6.10;94.20;;;;;;5072134;28;20410;-90
2022/12/01 03:05:16;;;;;;;138.93;61.35;;;6.10;94.40;;;;;;5090893;28;20710;-90
2022/12/01 03:07:46;;;;;;;179.13;66.95;;;6.00;94.40;;;;;;5088888;28;20402;-89
2022/12/01 03:10:18;;;;;;;193.07;66.25;;;6.00;94.60;;;;;;5089482;28;20872;-89
2022/12/01 03:13:08;;;;;;;183.13;64.33;;;6.00;94.70;;;;;;5072638;28;20420;-89
2022/12/01 03:15:49;;;;;;;223.63;67.20;;;6.10;94.50;;;;;;5071986;28;20410;-89
2022/12/01 03:18:30;;;;;;;231.52;68.78;;;6.00;94.40;;;;;;5089828;28;20466;-90
2022/12/01 03:21:08;;;;;;;185.57;63.63;;;6.00;94.50;;;;;;5088774;28;20421;-90
2022/12/01 03:23:38;;;;;;;153.48;60.05;;;6.00;94.40;;;;;;5072016;28;20406;-90
2022/12/01 03:26:06;;;;;;;182.90;65.32;;;6.00;94.40;;;;;;5073424;28;20748;-91
2022/12/01 03:28:49;;;;;;;201.00;67.70;;;6.00;94.60;;;;;;5087734;28;20398;-91
2022/12/01 03:31:19;;;;;;;197.65;66.03;;;6.00;94.60;;;;;;5068175;28;20430;-90
2022/12/01 03:33:57;;;;;;;200.55;67.32;;;6.00;94.60;;;;;;5071500;28;20921;-90
2022/12/01 03:36:51;;;;;;;341.67;75.03;;;5.90;94.50;;;;;;5071979;28;20406;-89
2022/12/01 03:39:22;;;;;;;237.73;67.35;;;5.90;94.20;;;;;;5072620;28;20827;-90
2022/12/01 03:41:58;;;;;;;208.82;68.75;;;5.90;94.30;;;;;;5071132;28;20492;-91
2022/12/01 03:44:30;;;;;;;152.00;59.75;;;5.80;94.40;;;;;;5072711;28;20789;-90
2022/12/01 03:47:02;;;;;;;218.82;65.53;;;5.80;94.40;;;;;;5071360;28;20402;-89
2022/12/01 03:49:28;;;;;;;205.57;64.15;;;5.70;94.50;;;;;;5070971;28;20402;-90
2022/12/01 03:52:06;;;;;;;249.10;71.63;;;5.70;94.60;;;;;;5072444;28;20651;-90
2022/12/01 03:54:53;;;;;;;206.95;64.80;;;5.70;94.60;;;;;;5071110;28;20408;-89
2022/12/01 03:57:27;;;;;;;348.50;74.30;;;5.70;94.80;;;;;;5089272;28;20438;-91
2022/12/01 03:59:53;;;;;;;199.75;64.28;;;5.80;94.90;;;;;;5071424;28;20911;-90
2022/12/01 04:02:19;;;;;;;254.43;69.43;;;5.80;94.80;;;;;;5070866;28;20410;-90
2022/12/01 04:04:44;;;;;;;196.35;65.82;;;5.70;94.60;;;;;;5071759;28;20404;-90
2022/12/01 04:07:13;;;;;;;208.97;65.87;;;5.80;94.70;;;;;;5070588;28;20397;-90
2022/12/01 04:09:40;;;;;;;196.45;63.30;;;5.80;94.90;;;;;;5089597;28;20406;-91
2022/12/01 04:14:52;;;;;;;240.73;70.97;;;5.80;94.80;;;;;;5088251;28;20765;-90
2022/12/01 04:17:18;;;;;;;275.23;69.88;;;5.80;94.80;;;;;;5070958;28;20441;-91
2022/12/01 04:19:43;;;;;;;202.50;67.38;;;5.90;94.90;;;;;;5071000;28;20404;-91
2022/12/01 04:22:09;;;;;;;204.80;67.13;;;6.00;95.00;;;;;;5071652;28;20942;-90
2022/12/01 04:24:34;;;;;;;196.43;64.28;;;5.80;94.90;;;;;;5069750;28;20433;-90
2022/12/01 04:27:00;;;;;;;211.53;67.37;;;5.90;94.80;;;;;;5072187;28;20442;-89
2022/12/01 04:29:25;;;;;;;197.60;64.33;;;5.90;94.70;;;;;;5087215;28;20402;-90
2022/12/01 04:31:51;;;;;;;219.70;68.53;;;5.90;94.80;;;;;;5071482;28;20402;-91
2022/12/01 04:34:17;;;;;;;311.70;75.90;;;5.90;94.90;;;;;;5087130;28;20390;-91
2022/12/01 04:36:42;;;;;;;304.10;74.88;;;6.00;94.90;;;;;;5070693;28;20840;-90
2022/12/01 04:39:08;;;;;;;228.10;69.73;;;5.90;94.70;;;;;;5070968;28;20436;-90
2022/12/01 04:41:33;;;;;;;183.80;63.63;;;6.00;94.80;;;;;;5070357;28;20765;-90
2022/12/01 04:43:59;;;;;;;205.48;64.88;;;5.90;94.70;;;;;;5071199;28;20467;-89
2022/12/01 04:46:25;;;;;;;198.73;64.63;;;5.90;94.60;;;;;;5069618;28;21210;-89
2022/12/01 04:48:51;;;;;;;180.23;68.32;;;5.90;94.70;;;;;;5088276;28;20494;-90
2022/12/01 04:51:17;;;;;;;185.57;66.97;;;6.00;95.10;;;;;;5069838;28;20416;-91
2022/12/01 04:53:42;;;;;;;173.03;64.80;;;5.90;94.80;;;;;;5070954;28;20479;-90
2022/12/01 04:56:08;;;;;;;175.85;61.13;;;5.90;94.80;;;;;;5069712;28;20417;-90
2022/12/01 04:58:37;;;;;;;150.10;60.92;;;5.90;94.80;;;;;;5070362;28;20842;-91
2022/12/01 05:01:05;;;;;;;247.27;70.82;;;5.90;94.80;;;;;;5087590;28;20394;-91
2022/12/01 05:03:31;;;;;;;189.77;65.95;;;5.90;94.90;;;;;;5086351;28;20444;-90
2022/12/01 05:06:09;;;;;;;207.57;68.50;;;5.90;94.90;;;;;;5071050;28;20409;-91
2022/12/01 05:08:35;;;;;;;211.75;67.47;;;5.90;94.90;;;;;;5069235;28;20418;-90
2022/12/01 05:11:02;;;;;;;205.80;65.80;;;5.90;94.90;;;;;;5070485;28;20402;-90
2022/12/01 05:13:27;;;;;;;196.20;63.92;;;5.90;95.20;;;;;;5070085;28;20397;-90
2022/12/01 05:16:02;;;;;;;181.45;63.63;;;5.90;94.80;;;;;;5069908;28;20409;-91
2022/12/01 05:18:27;;;;;;;227.88;68.32;;;5.90;94.80;;;;;;5087152;28;20440;-90
2022/12/01 05:20:56;;;;;;;224.63;70.07;;;5.90;94.80;;;;;;5069011;28;20410;-90
2022/12/01 05:23:25;;;;;;;211.27;67.17;;;5.90;94.80;;;;;;5087342;28;20398;-90
2022/12/01 05:25:51;;;;;;;237.00;67.18;;;5.90;94.80;;;;;;5085789;28;20459;-89
2022/12/01 05:28:18;;;;;;;278.38;71.07;;;5.90;94.60;;;;;;5070180;28;20417;-90
2022/12/01 05:30:44;;;;;;;181.20;65.53;;;5.90;94.60;;;;;;5069382;28;20402;-90
2022/12/01 05:33:10;;;;;;;172.13;64.03;;;5.80;94.70;;;;;;5069351;28;20428;-89
2022/12/01 05:35:36;;;;;;;195.73;63.70;;;5.80;94.70;;;;;;5070020;28;20410;-90
2022/12/01 05:38:01;;;;;;;235.85;65.97;;;5.80;94.60;;;;;;5068749;28;20440;-90
2022/12/01 05:40:29;;;;;;;201.67;65.33;;;5.80;94.70;;;;;;5070129;28;20493;-91
2022/12/01 05:42:55;;;;;;;166.80;64.30;;;5.80;94.60;;;;;;5068869;28;20402;-90
2022/12/01 05:45:21;;;;;;;225.75;70.60;;;5.80;94.70;;;;;;5070249;28;20413;-89
2022/12/01 05:47:46;;;;;;;229.32;72.00;;;5.80;94.80;;;;;;5068950;28;20464;-90
2022/12/01 05:50:12;;;;;;;202.17;65.23;;;5.80;95.00;;;;;;5086473;28;20839;-90
2022/12/01 05:52:38;;;;;;;269.83;72.27;;;5.80;94.90;;;;;;5069428;28;20428;-90
2022/12/01 05:55:04;;;;;;;193.30;68.03;;;5.80;94.90;;;;;;5069337;28;20417;-90
2022/12/01 05:57:31;;;;;;;195.00;65.07;;;5.80;94.80;;;;;;5069550;28;20430;-90
2022/12/01 05:59:57;;;;;;;234.75;69.18;;;6.00;95.00;;;;;;5068472;28;20896;-90
2022/12/01 06:02:22;;;;;;;205.50;67.38;;;5.90;94.80;;;;;;5070109;28;20405;-91
2022/12/01 06:04:48;;;;;;;291.13;74.93;;;5.90;94.90;;;;;;5068147;28;20513;-94
2022/12/01 06:07:13;;;;;;;244.27;69.55;;;5.90;94.70;;;;;;5068584;28;20861;-90
2022/12/01 06:09:39;;;;;;;184.82;64.55;;;5.90;94.80;;;;;;5068900;28;20421;-91
2022/12/01 06:12:05;;;;;;;178.13;63.40;;;6.00;94.70;;;;;;5085555;28;20855;-92
2022/12/01 06:14:30;;;;;;;172.67;65.60;;;5.90;94.60;;;;;;5068932;28;20488;-91
2022/12/01 06:16:56;;;;;;;233.63;68.32;;;5.90;94.60;;;;;;5067483;28;20409;-90
2022/12/01 06:19:22;;;;;;;160.47;60.90;;;5.90;94.50;;;;;;5069738;28;20433;-91
2022/12/01 06:21:47;;;;;;;222.53;64.87;;;5.80;94.20;;;;;;5085102;28;20421;-91
2022/12/01 06:24:13;;;;;;;211.43;65.72;;;5.70;94.00;;;;;;5069500;28;20406;-91
2022/12/01 06:26:38;;;;;;;165.93;60.60;;;5.70;93.90;;;;;;5068058;28;20413;-89
2022/12/01 06:29:04;;;;;;;139.48;56.35;;;5.50;93.70;;;;;;5069063;28;20406;-90
2022/12/01 06:31:30;;;;;;;110.38;50.05;;;5.40;93.40;;;;;;5068043;28;20398;-91
2022/12/01 06:33:55;;;;;;;104.33;47.43;;;5.30;93.40;;;;;;5068357;28;20424;-91
2022/12/01 06:36:21;;;;;;;164.93;55.63;;;5.20;93.40;;;;;;5068672;28;20414;-90
2022/12/01 06:38:46;;;;;;;129.90;51.47;;;5.10;93.70;;;;;;5067688;28;20772;-89
2022/12/01 06:41:12;;;;;;;144.33;53.97;;;5.00;93.80;;;;;;5069695;28;20950;-91
2022/12/01 06:43:38;;;;;;;349.38;62.15;;;4.90;93.80;;;;;;5067424;28;20513;-92
2022/12/01 06:46:04;;;;;;;163.23;54.67;;;4.80;93.90;;;;;;5068289;28;20447;-90
2022/12/01 06:48:30;;;;;;;154.40;54.30;;;4.70;94.00;;;;;;5085074;28;20439;-91
2022/12/01 06:50:57;;;;;;;146.68;51.85;;;4.60;94.00;;;;;;5085411;28;20468;-90
2022/12/01 06:53:23;;;;;;;142.48;50.33;;;4.50;94.00;;;;;;5085642;28;20402;-92
2022/12/01 06:55:49;;;;;;;188.07;54.20;;;4.50;94.30;;;;;;5083526;28;20473;-90
2022/12/01 06:58:15;;;;;;;185.38;49.60;;;4.40;94.30;;;;;;5089208;28;20969;-91
2022/12/01 07:00:40;;;;;;;166.88;54.08;;;4.30;93.90;;;;;;5104044;28;20437;-91
2022/12/01 07:03:07;;;;;;;621.20;69.38;;;4.20;93.90;;;;;;5089540;28;20412;-91
2022/12/01 07:05:32;;;;;;;300.50;54.13;;;4.30;94.60;;;;;;5087586;28;20412;-91
2022/12/01 07:07:59;;;;;;;369.88;44.88;;;4.00;94.50;;;;;;5105858;28;20412;-91
2022/12/01 07:10:24;;;;;;;688.20;59.15;;;3.90;94.60;;;;;;5105121;28;20399;-90
2022/12/01 07:12:50;;;;;;;784.83;71.88;;;3.90;94.70;;;;;;5088306;28;20482;-92
2022/12/01 07:15:15;;;;;;;769.43;62.97;;;3.80;94.90;;;;;;5106519;28;20839;-91
2022/12/01 07:17:41;;;;;;;432.05;56.53;;;3.80;95.20;;;;;;5104541;28;20428;-90
2022/12/01 07:20:09;;;;;;;422.95;44.92;;;3.80;95.60;;;;;;5089540;28;20407;-90
2022/12/01 07:22:35;;;;;;;527.22;55.90;;;3.80;95.30;;;;;;5087912;28;20443;-90
2022/12/01 07:25:00;;;;;;;394.80;61.67;;;3.70;95.30;;;;;;5089489;28;20440;-91
2022/12/01 07:27:32;;;;;;;215.00;51.10;;;3.70;95.60;;;;;;5105123;28;21003;-90
2022/12/01 07:30:01;;;;;;;412.48;64.35;;;3.80;95.80;;;;;;5105352;28;20469;-90
2022/12/01 07:32:26;;;;;;;286.00;59.97;;;3.80;95.80;;;;;;5089126;28;20492;-90
2022/12/01 07:34:52;;;;;;;305.30;58.47;;;3.80;95.70;;;;;;5087470;28;20462;-91
2022/12/01 07:37:18;;;;;;;254.10;55.43;;;3.90;95.50;;;;;;5085311;28;20559;-91
2022/12/01 07:39:43;;;;;;;326.15;59.60;;;3.70;95.40;;;;;;5067588;28;20954;-92
2022/12/01 07:42:09;;;;;;;314.33;59.30;;;3.70;95.40;;;;;;5068854;28;20394;-91
2022/12/01 07:44:35;;;;;;;185.73;53.30;;;3.70;95.50;;;;;;5067803;28;20403;-90
2022/12/01 07:47:00;;;;;;;139.57;48.17;;;3.70;95.50;;;;;;5085590;28;20394;-91
2022/12/01 07:49:26;;;;;;;206.33;54.30;;;3.60;95.70;;;;;;5071865;28;20418;-91
2022/12/01 07:51:51;;;;;;;140.00;45.90;;;3.60;95.60;;;;;;5071465;28;20406;-91
2022/12/01 07:54:19;;;;;;;143.98;45.60;;;3.60;95.40;;;;;;5072664;28;20431;-91
2022/12/01 07:56:45;;;;;;;139.07;44.22;;;3.60;95.10;;;;;;5070665;28;20410;-91
2022/12/01 07:59:11;;;;;;;156.88;46.10;;;3.50;94.80;;;;;;5071847;28;20479;-91
2022/12/01 08:01:37;;;;;;;155.53;47.67;;;3.40;95.00;;;;;;5070651;28;20406;-88
2022/12/01 08:04:02;;;;;;;118.23;44.17;;;3.40;95.30;;;;;;5072640;28;20410;-90
2022/12/01 08:06:28;;;;;;;147.97;42.50;;;3.40;95.30;;;;;;5070974;28;20963;-91
2022/12/01 08:08:54;;;;;;;138.02;44.70;;;3.30;95.00;;;;;;5088099;28;20405;-90
2022/12/01 08:11:23;;;;;;;115.15;42.83;;;3.40;95.00;;;;;;5088259;28;20457;-89
2022/12/01 08:13:50;;;;;;;202.65;48.03;;;3.40;95.20;;;;;;5087629;28;20453;-90
2022/12/01 08:16:19;;;;;;;149.52;40.35;;;3.40;94.90;;;;;;5071359;28;20860;-90
2022/12/01 08:18:45;;;;;;;184.93;40.53;;;3.40;95.00;;;;;;5086837;28;20436;-92
2022/12/01 08:21:13;;;;;;;125.20;36.85;;;3.30;95.10;;;;;;5071876;28;20435;-90
2022/12/01 08:23:40;;;;;;;81.03;33.63;;;3.40;95.10;;;;;;5070624;28;20401;-90
2022/12/01 08:26:13;;;;;;;132.23;40.17;;;3.30;95.10;;;;;;5088085;28;20480;-87
2022/12/01 08:28:39;;;;;;;98.00;39.65;;;3.40;95.10;;;;;;5088076;28;20485;-89
2022/12/01 08:31:13;;;;;;;143.75;42.72;;;3.40;95.00;;;;;;5070141;28;20536;-89
2022/12/01 08:33:39;;;;;;;155.27;45.53;;;3.40;95.40;;;;;;5071495;28;20971;-90
2022/12/01 08:36:05;;;;;;;91.43;38.77;;;3.50;95.30;;;;;;5070424;28;20532;-90
2022/12/01 08:38:31;;;;;;;104.13;38.17;;;3.50;95.20;;;;;;5071077;28;20522;-90
2022/12/01 08:41:01;;;;;;;109.20;38.33;;;3.60;95.10;;;;;;5070106;28;20406;-89
2022/12/01 08:43:27;;;;;;;98.70;37.22;;;3.60;94.90;;;;;;5070755;28;21057;-91
2022/12/01 08:45:55;;;;;;;84.03;35.75;;;3.60;95.20;;;;;;5087662;28;20457;-90
2022/12/01 08:48:22;;;;;;;115.80;40.70;;;3.70;95.20;;;;;;5070219;28;20398;-90
2022/12/01 08:50:47;;;;;;;102.30;38.10;;;3.80;95.40;;;;;;5088088;28;20506;-89
2022/12/01 08:53:13;;;;;;;115.03;38.87;;;3.90;95.30;;;;;;5070057;28;20905;-89
2022/12/01 08:55:38;;;;;;;83.43;35.00;;;4.00;95.20;;;;;;5071026;28;20473;-91
2022/12/01 08:58:04;;;;;;;79.60;36.20;;;4.10;95.30;;;;;;5069234;28;20426;-90
2022/12/01 09:00:30;;;;;;;75.67;34.13;;;4.30;95.50;;;;;;5070691;28;20490;-91
2022/12/01 09:02:55;;;;;;;83.17;35.53;;;4.50;96.00;;;;;;5070108;28;20756;-90
2022/12/01 09:05:21;;;;;;;73.17;33.70;;;4.70;95.80;;;;;;5070057;28;20398;-91
2022/12/01 09:08:29;;;;;;;66.20;30.73;;;5.00;95.90;;;;;;5070660;28;20436;-90
2022/12/01 09:10:32;;;;;;;65.18;29.92;;;5.00;95.60;;;;;;5085853;28;20944;-90
2022/12/01 09:12:57;;;;;;;52.22;27.67;;;5.10;95.20;;;;;;5070621;28;20453;-89
2022/12/01 09:15:23;;;;;;;53.80;27.33;;;5.40;94.80;;;;;;5069557;28;20397;-88
2022/12/01 09:17:49;;;;;;;57.43;26.43;;;5.30;94.90;;;;;;5070346;28;20430;-89
2022/12/01 09:20:14;;;;;;;59.92;27.23;;;5.30;94.70;;;;;;5069289;28;20424;-90
2022/12/01 09:22:40;;;;;;;44.75;24.48;;;5.40;94.50;;;;;;5069675;28;20433;-90
2022/12/01 09:25:13;;;;;;;42.63;24.60;;;5.50;94.30;;;;;;5070230;28;20414;-90
2022/12/01 09:27:39;;;;;;;40.47;21.95;;;5.60;94.60;;;;;;5069152;28;20507;-90
2022/12/01 09:30:05;;;;;;;31.00;20.87;;;5.70;94.40;;;;;;5087295;28;20394;-90
2022/12/01 09:32:30;;;;;;;25.27;18.92;;;5.90;94.00;;;;;;5068103;28;20467;-89
2022/12/01 09:34:56;;;;;;;28.17;20.87;;;6.10;93.70;;;;;;5070371;28;20438;-90
2022/12/01 09:37:22;;;;;;;23.38;18.45;;;6.60;93.50;;;;;;5069178;28;20761;-90
2022/12/01 09:39:47;;;;;;;22.43;17.37;;;6.60;93.10;;;;;;5069585;28;20405;-91
2022/12/01 09:42:17;;;;;;;25.15;18.40;;;6.80;92.00;;;;;;5086991;28;20429;-91
2022/12/01 09:44:54;;;;;;;22.57;17.57;;;7.00;92.70;;;;;;5068702;28;20405;-90
2022/12/01 09:47:30;;;;;;;22.48;17.77;;;7.10;91.70;;;;;;5082520;28;20414;-91
2022/12/01 09:50:01;;;;;;;22.25;17.73;;;7.20;91.80;;;;;;5068940;28;20414;-90
2022/12/01 09:52:32;;;;;;;23.13;18.17;;;7.40;91.70;;;;;;5069909;28;20457;-90
2022/12/01 09:54:59;;;;;;;21.65;17.00;;;7.60;92.00;;;;;;5069372;28;20829;-90
2022/12/01 09:57:37;;;;;;;20.60;16.63;;;7.80;92.00;;;;;;5068952;28;20470;-90
2022/12/01 10:00:34;;;;;;;21.38;17.10;;;7.80;91.50;;;;;;5086810;28;20573;-91
2022/12/01 10:03:36;;;;;;;23.92;17.70;;;7.80;90.60;;;;;;5079789;28;20506;-90
2022/12/01 10:06:23;;;;;;;24.67;17.98;;;7.70;90.30;;;;;;5068830;28;20484;-91
2022/12/01 10:09:14;;;;;;;20.80;17.38;;;7.60;90.40;;;;;;5065293;28;20892;-89
2022/12/01 10:11:43;;;;;;;22.58;17.70;;;7.60;90.10;;;;;;5067907;28;20414;-91
2022/12/01 10:14:17;;;;;;;23.10;17.97;;;7.60;90.00;;;;;;5069423;28;21004;-90
2022/12/01 10:17:02;;;;;;;24.88;19.50;;;7.50;90.50;;;;;;5085654;28;20981;-90
2022/12/01 10:19:42;;;;;;;21.90;17.17;;;7.50;91.10;;;;;;5084812;28;20437;-89
2022/12/01 10:22:29;;;;;;;24.30;18.60;;;7.40;90.00;;;;;;5086627;28;20494;-90
2022/12/01 10:25:19;;;;;;;21.75;17.65;;;7.40;90.60;;;;;;5068918;28;20410;-90
2022/12/01 10:28:06;;;;;;;25.58;19.13;;;7.40;91.10;;;;;;5068134;28;20935;-90
2022/12/01 10:30:38;;;;;;;20.55;16.58;;;7.50;91.20;;;;;;5069697;28;20422;-91
2022/12/01 10:33:12;;;;;;;25.05;18.83;;;7.90;91.10;;;;;;5084708;28;20413;-90
2022/12/01 10:35:39;;;;;;;21.98;18.27;;;8.10;89.90;;;;;;5069147;28;20811;-91
2022/12/01 10:38:12;;;;;;;21.02;16.60;;;8.50;91.20;;;;;;5068433;28;20459;-89
2022/12/01 10:40:38;;;;;;;18.73;16.65;;;9.10;89.00;;;;;;5068397;28;20402;-90
2022/12/01 10:43:03;;;;;;;17.83;14.93;;;9.60;90.10;;;;;;5068781;28;20415;-89
2022/12/01 10:45:38;;;;;;;17.52;15.35;;;10.20;87.00;;;;;;5068024;28;20749;-92
2022/12/01 10:48:19;;;;;;;14.97;13.37;;;10.70;86.90;;;;;;5086192;28;20409;-91
2022/12/01 10:50:48;;;;;;;15.02;13.43;;;11.10;81.20;;;;;;5067757;28;20500;-91
2022/12/01 10:53:27;;;;;;;15.05;13.38;;;11.40;80.70;;;;;;5068838;28;20469;-92
2022/12/01 10:56:14;;;;;;;15.30;13.70;;;11.50;75.30;;;;;;5070081;28;20398;-91
2022/12/01 10:58:50;;;;;;;16.87;13.47;;;11.40;76.40;;;;;;5067546;28;20509;-90
2022/12/01 11:01:18;;;;;;;16.50;14.15;;;11.40;76.10;;;;;;5069020;28;20410;-90
2022/12/01 11:03:49;;;;;;;15.40;13.43;;;11.60;78.80;;;;;;5067818;28;20405;-90
2022/12/01 11:06:21;;;;;;;15.73;14.00;;;11.70;72.60;;;;;;5068646;28;20405;-90
2022/12/01 11:08:55;;;;;;;16.02;13.90;;;11.80;75.40;;;;;;5085623;28;20394;-91
2022/12/01 11:11:27;;;;;;;14.77;13.18;;;12.10;76.20;;;;;;5063658;28;20493;-91
2022/12/01 11:13:53;;;;;;;14.55;13.00;;;12.10;72.10;;;;;;5069262;28;20418;-91
2022/12/01 11:16:43;;;;;;;14.05;11.82;;;12.10;73.10;;;;;;5067454;28;20501;-91
2022/12/01 11:19:33;;;;;;;14.60;12.57;;;12.00;68.90;;;;;;5068716;28;20426;-91
2022/12/01 11:22:11;;;;;;;14.13;12.02;;;11.90;72.20;;;;;;5069788;28;20406;-90
2022/12/01 11:24:43;;;;;;;14.50;12.43;;;11.60;69.70;;;;;;5088290;28;20969;-90
2022/12/01 11:27:16;;;;;;;14.98;13.38;;;11.40;71.60;;;;;;5072616;28;20409;-92
2022/12/01 11:29:44;;;;;;;13.80;12.38;;;11.20;71.10;;;;;;5071548;28;20477;-89
2022/12/01 11:32:26;;;;;;;14.13;12.63;;;11.00;71.20;;;;;;5071868;28;20409;-91
2022/12/01 11:35:03;;;;;;;15.68;13.75;;;10.70;75.20;;;;;;5089215;28;20402;-89
2022/12/01 11:37:38;;;;;;;16.83;14.52;;;10.50;75.00;;;;;;5070872;28;20489;-88
2022/12/01 11:40:23;;;;;;;16.75;14.40;;;10.40;78.00;;;;;;5055874;28;20406;-91
2022/12/01 11:43:20;;;;;;;17.65;14.93;;;9.90;76.60;;;;;;5071709;28;20467;-91
2022/12/01 11:45:46;;;;;;;19.98;16.17;;;9.70;80.10;;;;;;5071365;28;20414;-91
2022/12/01 11:48:11;;;;;;;19.65;15.75;;;9.70;82.50;;;;;;5071963;28;20489;-90
2022/12/01 11:50:39;;;;;;;18.00;15.57;;;9.60;83.40;;;;;;5070799;28;20458;-90
2022/12/01 11:53:41;;;;;;;16.60;14.52;;;9.60;84.60;;;;;;5072657;28;20416;-89
2022/12/01 11:56:19;;;;;;;17.20;15.35;;;9.70;80.10;;;;;;4991121;28;20424;-89
2022/12/01 11:58:47;;;;;;;18.48;16.17;;;9.50;82.40;;;;;;5061476;28;20509;-90
2022/12/01 12:01:31;;;;;;;20.35;16.77;;;9.30;84.60;;;;;;5072588;28;20478;-92
2022/12/01 12:04:34;;;;;;;19.20;15.05;;;9.30;85.30;;;;;;5070284;28;20409;-89
2022/12/01 12:07:22;;;;;;;20.55;17.55;;;9.20;84.40;;;;;;5088010;28;20416;-90
2022/12/01 12:10:02;;;;;;;19.73;16.80;;;9.10;87.60;;;;;;5072120;28;20413;-90
2022/12/01 12:12:51;;;;;;;18.58;16.00;;;9.00;85.50;;;;;;5070530;28;20406;-90
2022/12/01 12:15:38;;;;;;;21.40;16.25;;;8.80;83.70;;;;;;5071483;28;20967;-90
2022/12/01 12:18:38;;;;;;;19.58;15.90;;;8.70;85.80;;;;;;5071661;28;20535;-89
2022/12/01 12:21:29;;;;;;;21.02;16.83;;;8.60;85.00;;;;;;5070238;28;20402;-89
2022/12/01 12:24:00;;;;;;;25.65;20.45;;;8.40;87.50;;;;;;5071522;28;20472;-90
2022/12/01 12:26:48;;;;;;;23.60;18.38;;;8.40;90.40;;;;;;5071458;28;20472;-90
2022/12/01 12:29:48;;;;;;;20.27;16.13;;;8.50;91.20;;;;;;5070183;28;20500;-90
2022/12/01 12:32:16;;;;;;;22.73;17.45;;;8.60;89.10;;;;;;5055483;28;20418;-89
2022/12/01 12:34:56;;;;;;;19.23;15.95;;;8.60;90.30;;;;;;5069762;28;20394;-89
2022/12/01 12:37:33;;;;;;;17.53;14.67;;;8.70;87.60;;;;;;5070417;28;20417;-90
2022/12/01 12:40:08;;;;;;;18.83;15.75;;;8.80;84.90;;;;;;5071577;28;20501;-91
2022/12/01 12:43:03;;;;;;;18.95;14.98;;;8.90;86.20;;;;;;5070336;28;20418;-91
2022/12/01 12:45:55;;;;;;;18.02;14.68;;;9.00;84.20;;;;;;5033701;28;20436;-90
2022/12/01 12:48:35;;;;;;;18.25;14.43;;;9.00;83.40;;;;;;5071490;28;20510;-90
2022/12/01 12:51:17;;;;;;;17.23;14.30;;;9.10;82.30;;;;;;5069862;28;20413;-92
2022/12/01 12:53:56;;;;;;;18.70;15.63;;;9.00;79.90;;;;;;5071296;28;20410;-90